Weather observations for the past three days for
Rota Island, N. Mariana Is, Rota International Airport
| Date | Time (chst) | Wind (mph) | Vis. (mi.) | Weather | Sky Cond. | Temperature (ºF) | Relative Humidity | Wind Chill (°F) | Heat Index (°F) | Pressure | Precipitation (in) | ||||||
|---|---|---|---|---|---|---|---|---|---|---|---|---|---|---|---|---|---|
| Air | Dwpt | 6 hour | altimeter (in) | sea level (mb) | 1 hr | 3 hr | 6 hr | ||||||||||
| Max. | Min. | ||||||||||||||||
| 31 | 17:50 | W 9 | 7.00 | Mostly Cloudy | BKN013 BKN120 | 78.8 | 73.4 | 84% | 82 | 29.81 | 0.0 | ||||||
| 31 | 16:50 | W 13 | 7.00 | Mostly Cloudy | BKN013 BKN120 | 80.6 | 77 | 89% | 87 | 29.79 | 0.0 | ||||||
| 31 | 15:50 | W 8 | 7.00 | Mostly Cloudy | BKN013 BKN120 | 80.6 | 78.8 | 94% | 88 | 29.79 | 0.0 | ||||||
| 31 | 14:50 | W 5 | 7.00 | Mostly Cloudy | SCT012 BKN120 | 80.6 | 77 | 89% | 87 | 29.79 | 0.0 | ||||||
| 31 | 13:50 | Vrbl 5 | 7.00 | Mostly Cloudy | BKN012 BKN120 | 78.8 | 71.6 | 79% | 82 | 29.81 | 0.0 | ||||||
| 31 | 12:50 | Vrbl 6 | 7.00 | Light Rain | BKN012 BKN120 | 78.8 | 75.2 | 89% | 82 | 29.82 | 0.0 | ||||||
| 31 | 11:50 | W 12 | 7.00 | Mostly Cloudy | SCT012 BKN120 | 78.8 | 73.4 | 84% | 82 | 29.84 | 0.0 | ||||||
| 31 | 10:50 | W 9 | 7.00 | Showers in Vicinity | BKN011 BKN120 | 78.8 | 75.2 | 89% | 82 | 29.85 | 0.0 | ||||||
| 31 | 09:50 | Calm | 7.00 | Light Rain | BKN013 BKN120 | 77 | 77 | 100% | 78 | 29.85 | 0.0 | ||||||
| 31 | 08:50 | Calm | 7.00 | Showers in Vicinity | SCT013 BKN120 | 78.8 | 75.2 | 89% | 82 | 29.84 | 0.0 | ||||||
| 31 | 07:50 | Calm | 7.00 | Mostly Cloudy | SCT013 BKN120 | 78.8 | 75.2 | 89% | 82 | 29.81 | 0.0 | ||||||
| 31 | 06:50 | Calm | 7.00 | Mostly Cloudy | SCT013 BKN120 | 77 | 75.2 | 94% | 78 | 29.8 | 0.0 | ||||||
| 30 | 16:50 | Vrbl 5 | 7.00 | Showers in Vicinity | BKN012 BKN100 | 80.6 | 77 | 89% | 87 | 29.77 | 0.0 | ||||||
| 30 | 15:50 | W 9 | 7.00 | Light Rain | BKN012 BKN100 | 77 | 73.4 | 89% | 78 | 29.79 | 0.0 | ||||||
| 30 | 14:58 | N 10 | 7.00 | Light Rain | SCT013 BKN100 | 80.6 | 75.2 | 84% | 86 | 29.79 | 0.0 | ||||||
| 30 | 13:50 | N 10 | 7.00 | Mostly Cloudy | SCT013 BKN100 | 80.6 | 75.2 | 84% | 86 | 29.79 | 0.0 | ||||||
| 30 | 12:50 | N 8 | 7.00 | Mostly Cloudy | SCT013 BKN100 | 80.6 | 77 | 89% | 87 | 29.81 | 0.0 | ||||||
| 30 | 11:50 | N 8 | 7.00 | Mostly Cloudy | BKN013 BKN120 | 80.6 | 77 | 89% | 87 | 29.82 | 0.0 | ||||||
| 30 | 10:50 | N 8 | 7.00 | Mostly Cloudy | SCT013 BKN120 | 80.6 | 78.8 | 94% | 88 | 29.82 | 0.0 | ||||||
| 30 | 09:50 | N 7 | 7.00 | Mostly Cloudy | BKN013 BKN120 | 78.8 | 77 | 94% | 83 | 29.81 | 0.0 | ||||||
| 30 | 08:50 | N 7 | 7.00 | Mostly Cloudy | SCT013 BKN130 | 78.8 | 77 | 94% | 83 | 29.82 | 0.0 | ||||||
| 30 | 07:50 | N 5 | 7.00 | Mostly Cloudy | FEW010 BKN130 | 77 | 77 | 100% | 78 | 29.82 | 0.0 | ||||||
| 30 | 06:50 | NW 5 | 7.00 | Mostly Cloudy | FEW010 BKN130 | 77 | 77 | 100% | 78 | 29.81 | 0.0 | ||||||
| 29 | 17:50 | W 9 | 7.00 | Mostly Cloudy | BKN012 BKN100 | 80.6 | 75.2 | 84% | 86 | 29.79 | 0.0 | ||||||
| 29 | 16:50 | N 7 | 7.00 | Mostly Cloudy | BKN012 BKN100 | 80.6 | 77 | 89% | 87 | 29.77 | 0.0 | ||||||
| 29 | 13:50 | NW 7 | 7.00 | Mostly Cloudy | SCT012 BKN065 BKN120 | 80.6 | 77 | 89% | 87 | 29.79 | 0.0 | ||||||
| 29 | 12:50 | Calm | 7.00 | Mostly Cloudy | FEW012 BKN055 BKN120 | 78.8 | 77 | 94% | 83 | 29.81 | 0.0 | ||||||
| 29 | 11:50 | Calm | 7.00 | Overcast | FEW012 BKN055 OVC120 | 78.8 | 75.2 | 89% | 82 | 29.83 | 0.0 | ||||||
| 29 | 10:50 | Calm | 7.00 | Light Rain | FEW010 OVC120 | 77 | 75.2 | 94% | 78 | 29.85 | 0.0 | ||||||
| 29 | 09:50 | N 9 G 14 | 7.00 | Showers in Vicinity | BKN009 OVC120 | 77 | 75.2 | 94% | 78 | 29.87 | 0.0 | ||||||
| 29 | 08:50 | N 10 G 17 | 6.00 | Light Rain Fog/Mist | BKN010 OVC120 | 78.8 | 77 | 94% | 83 | 29.87 | 0.0 | ||||||
| 29 | 07:50 | N 8 G 14 | 7.00 | Showers in Vicinity | BKN012 OVC120 | 77 | 77 | 100% | 78 | 29.85 | 0.0 | ||||||
| 29 | 06:50 | NW 8 G 12 | 7.00 | Overcast | BKN014 OVC120 | 78.8 | 77 | 94% | 83 | 29.83 | 0.0 | ||||||
| Date | Time (chst) | Wind (mph) | Vis. (mi.) | Weather | Sky Cond. | Air | Dwpt | Max. | Min. | Relative Humidity | Wind Chill (°F) | Heat Index (°F) | altimeter (in) | sea level (mb) | 1 hr | 3 hr | 6 hr |
| 6 hour | |||||||||||||||||
| Temperature (ºF) | Pressure | Precipitation (in) | |||||||||||||||